createdAt,value
2023-03-29T00:02:07.864Z,8.65
2023-03-29T00:04:35.438Z,14.52
2023-03-29T00:07:04.639Z,11.48
2023-03-29T00:09:33.227Z,10.48
2023-03-29T00:12:00.803Z,13.90
2023-03-29T00:14:30.419Z,9.85
2023-03-29T00:16:57.998Z,15.60
2023-03-29T00:19:25.566Z,10.68
2023-03-29T00:21:53.047Z,7.80
2023-03-29T00:24:21.488Z,14.20
2023-03-29T00:26:48.902Z,8.45
2023-03-29T00:29:16.763Z,11.10
2023-03-29T00:31:54.822Z,9.32
2023-03-29T00:34:22.331Z,7.85
2023-03-29T00:36:53.167Z,10.63
2023-03-29T00:39:20.962Z,13.07
2023-03-29T00:41:48.239Z,9.90
2023-03-29T00:44:15.545Z,13.73
2023-03-29T00:46:42.899Z,11.27
2023-03-29T00:49:12.731Z,14.23
2023-03-29T00:51:39.989Z,8.23
2023-03-29T00:54:07.657Z,10.15
2023-03-29T00:56:35.439Z,14.50
2023-03-29T00:59:03.710Z,10.70
2023-03-29T01:01:34.332Z,10.52
2023-03-29T01:04:03.382Z,11.15
2023-03-29T01:06:31.466Z,13.15
2023-03-29T01:08:59.332Z,13.10
2023-03-29T01:11:26.683Z,10.82
2023-03-29T01:13:54.092Z,7.95
2023-03-29T01:16:22.282Z,18.42
2023-03-29T01:18:49.633Z,9.77
2023-03-29T01:21:16.865Z,10.45
2023-03-29T01:23:44.190Z,8.60
2023-03-29T01:26:11.390Z,9.88
2023-03-29T01:28:39.244Z,9.07
2023-03-29T01:31:08.511Z,8.40
2023-03-29T01:33:35.816Z,7.72
2023-03-29T01:36:03.559Z,10.10
2023-03-29T01:38:30.931Z,12.30
2023-03-29T01:40:58.079Z,13.63
2023-03-29T01:43:25.391Z,10.15
2023-03-29T01:45:52.893Z,10.15
2023-03-29T01:48:20.369Z,13.88
2023-03-29T01:50:47.588Z,10.57
2023-03-29T01:53:14.848Z,9.35
2023-03-29T01:55:42.147Z,10.18
2023-03-29T01:58:09.532Z,9.77
2023-03-29T02:00:36.935Z,7.15
2023-03-29T02:03:04.587Z,8.55
2023-03-29T02:05:31.944Z,9.77
2023-03-29T02:08:00.303Z,8.85
2023-03-29T02:10:27.667Z,9.23
2023-03-29T02:12:54.945Z,10.60
2023-03-29T02:15:23.545Z,7.57
2023-03-29T02:17:51.107Z,7.03
2023-03-29T02:20:19.657Z,5.63
2023-03-29T02:22:47.171Z,11.13
2023-03-29T02:25:15.957Z,7.18
2023-03-29T02:27:43.230Z,6.50
2023-03-29T02:30:11.129Z,9.20
2023-03-29T02:32:40.273Z,10.48
2023-03-29T02:35:08.016Z,8.93
2023-03-29T02:37:36.391Z,11.18
2023-03-29T02:40:08.003Z,10.50
2023-03-29T02:42:36.879Z,8.25
2023-03-29T02:45:05.200Z,10.18
2023-03-29T02:47:32.490Z,13.57
2023-03-29T02:50:00.593Z,9.85
2023-03-29T02:52:27.935Z,7.15
2023-03-29T02:54:55.259Z,7.90
2023-03-29T02:57:26.664Z,10.02
2023-03-29T02:59:54.232Z,11.73
2023-03-29T03:02:21.524Z,12.23
2023-03-29T03:04:48.899Z,15.00
2023-03-29T03:07:16.163Z,10.25
2023-03-29T03:09:43.511Z,13.10
2023-03-29T03:12:10.736Z,7.93
2023-03-29T03:14:38.090Z,11.35
2023-03-29T03:17:05.378Z,15.30
2023-03-29T03:19:33.909Z,13.38
2023-03-29T03:22:01.168Z,12.85
2023-03-29T03:24:28.458Z,10.32
2023-03-29T03:26:56.818Z,13.35
2023-03-29T03:29:24.904Z,13.43
2023-03-29T03:32:12.626Z,11.57
2023-03-29T03:35:08.899Z,10.85
2023-03-29T03:37:36.276Z,14.73
2023-03-29T03:40:03.844Z,11.30
2023-03-29T03:42:31.380Z,11.95
2023-03-29T03:44:59.251Z,10.45
2023-03-29T03:47:35.434Z,11.65
2023-03-29T03:50:17.728Z,13.77
2023-03-29T03:52:45.277Z,13.02
2023-03-29T03:55:12.936Z,10.35
2023-03-29T03:57:49.388Z,7.28
2023-03-29T04:00:23.386Z,10.60
2023-03-29T04:03:09.209Z,8.13
2023-03-29T04:05:36.938Z,11.38
2023-03-29T04:08:06.751Z,10.23
2023-03-29T04:11:09.263Z,12.18
2023-03-29T04:13:38.589Z,11.63
2023-03-29T04:16:25.049Z,10.73
2023-03-29T04:18:52.885Z,13.40
2023-03-29T04:21:22.071Z,15.18
2023-03-29T04:23:49.451Z,12.95
2023-03-29T04:26:18.157Z,8.45
2023-03-29T04:28:48.659Z,12.70
2023-03-29T04:31:34.562Z,15.02
2023-03-29T04:34:22.182Z,13.88
2023-03-29T04:36:54.233Z,14.18
2023-03-29T04:39:32.095Z,14.55
2023-03-29T04:42:03.900Z,12.27
2023-03-29T04:44:35.144Z,10.32
2023-03-29T04:47:05.440Z,11.98
2023-03-29T04:49:52.727Z,11.00
2023-03-29T04:52:33.487Z,11.07
2023-03-29T04:55:02.898Z,16.13
2023-03-29T04:57:44.843Z,11.65
2023-03-29T05:00:31.399Z,14.13
2023-03-29T05:03:14.728Z,19.80
2023-03-29T05:06:03.085Z,12.13
2023-03-29T05:08:30.461Z,11.68
2023-03-29T05:11:10.367Z,8.57
2023-03-29T05:13:38.242Z,15.52
2023-03-29T05:16:05.580Z,13.60
2023-03-29T05:18:33.168Z,13.95
2023-03-29T05:21:00.886Z,13.85
2023-03-29T05:23:28.955Z,15.27
2023-03-29T05:26:05.229Z,12.43
2023-03-29T05:28:33.860Z,15.25
2023-03-29T05:31:02.643Z,11.32
2023-03-29T05:33:30.915Z,14.60
2023-03-29T05:35:58.894Z,11.55
2023-03-29T05:38:26.541Z,10.13
2023-03-29T05:40:54.260Z,11.70
2023-03-29T05:43:47.316Z,16.02
2023-03-29T05:46:14.901Z,13.60
2023-03-29T05:48:48.882Z,18.48
2023-03-29T05:51:18.993Z,17.08
2023-03-29T05:53:46.751Z,17.92
2023-03-29T05:56:16.126Z,17.73
2023-03-29T05:58:44.022Z,11.82
2023-03-29T06:01:11.489Z,14.35
2023-03-29T06:04:06.548Z,11.68
2023-03-29T06:06:41.831Z,12.43
2023-03-29T06:09:09.700Z,16.70
2023-03-29T06:11:40.902Z,14.82
2023-03-29T06:14:11.301Z,12.32
2023-03-29T06:16:43.434Z,11.13
2023-03-29T06:19:12.784Z,10.55
2023-03-29T06:21:41.444Z,8.63
2023-03-29T06:24:13.330Z,9.77
2023-03-29T06:26:46.533Z,13.85
2023-03-29T06:29:14.780Z,10.88
2023-03-29T06:31:43.114Z,10.40
2023-03-29T06:34:23.119Z,12.07
2023-03-29T06:37:00.664Z,19.80
2023-03-29T06:39:27.932Z,16.25
2023-03-29T06:42:20.046Z,16.85
2023-03-29T06:47:39.683Z,8.88
2023-03-29T06:50:06.951Z,11.38
2023-03-29T06:52:47.108Z,10.10
2023-03-29T06:55:14.458Z,10.20
2023-03-29T06:57:41.748Z,7.45
2023-03-29T07:00:18.263Z,10.60
2023-03-29T07:03:09.981Z,10.48
2023-03-29T07:05:40.864Z,9.15
2023-03-29T07:08:15.411Z,9.57
2023-03-29T07:11:03.723Z,7.40
2023-03-29T07:13:33.090Z,7.72
2023-03-29T07:16:04.060Z,11.02
2023-03-29T07:18:48.845Z,7.38
2023-03-29T07:21:42.118Z,6.55
2023-03-29T07:24:10.385Z,7.65
2023-03-29T07:26:40.479Z,7.50
2023-03-29T07:29:12.047Z,5.35
2023-03-29T07:31:41.001Z,6.82
2023-03-29T07:34:30.097Z,8.45
2023-03-29T07:36:57.879Z,7.45
2023-03-29T07:39:26.257Z,6.72
2023-03-29T07:42:16.794Z,4.78
2023-03-29T07:44:44.317Z,7.00
2023-03-29T07:47:12.697Z,5.25
2023-03-29T07:49:40.327Z,4.22
2023-03-29T07:52:07.840Z,6.57
2023-03-29T07:54:35.569Z,5.53
2023-03-29T07:57:23.136Z,3.55
2023-03-29T07:59:54.149Z,4.35
2023-03-29T08:02:27.995Z,4.78
2023-03-29T08:04:59.241Z,3.92
2023-03-29T08:07:42.566Z,6.88
2023-03-29T08:10:30.458Z,4.13
2023-03-29T08:12:58.256Z,4.43
2023-03-29T08:15:32.284Z,7.18
2023-03-29T08:18:00.122Z,5.13
2023-03-29T08:20:27.687Z,6.45
2023-03-29T08:23:00.302Z,5.60
2023-03-29T08:25:34.416Z,5.32
2023-03-29T08:28:02.891Z,11.40
2023-03-29T08:30:45.214Z,9.30
2023-03-29T08:33:12.863Z,8.32
2023-03-29T08:35:41.407Z,12.38
2023-03-29T08:38:21.845Z,15.20
2023-03-29T08:40:50.088Z,13.07
2023-03-29T08:43:18.380Z,13.48
2023-03-29T08:46:05.830Z,11.90
2023-03-29T08:48:33.414Z,10.02
2023-03-29T08:51:03.413Z,11.55
2023-03-29T08:53:32.083Z,9.90
2023-03-29T08:56:08.876Z,11.90
2023-03-29T08:58:55.053Z,6.22
2023-03-29T09:01:23.768Z,8.02
2023-03-29T09:03:54.647Z,6.95
2023-03-29T09:06:33.938Z,5.20
2023-03-29T09:09:13.847Z,6.50
2023-03-29T09:11:41.475Z,4.20
2023-03-29T09:14:08.821Z,9.45
2023-03-29T09:16:36.559Z,3.05
2023-03-29T09:19:04.176Z,4.97
2023-03-29T09:21:32.446Z,7.38
2023-03-29T09:24:00.470Z,3.33
2023-03-29T09:26:39.568Z,3.08
2023-03-29T09:29:24.327Z,2.10
2023-03-29T09:31:52.199Z,1.33
2023-03-29T09:34:19.602Z,1.50
2023-03-29T09:37:03.183Z,2.42
2023-03-29T09:39:31.020Z,2.78
2023-03-29T09:42:08.125Z,5.90
2023-03-29T09:44:37.192Z,10.07
2023-03-29T09:47:08.582Z,6.85
2023-03-29T09:49:37.844Z,6.38
2023-03-29T09:52:05.910Z,6.90
2023-03-29T09:54:33.954Z,3.90
2023-03-29T09:57:36.552Z,6.43
2023-03-29T10:00:05.850Z,4.63
2023-03-29T10:02:41.127Z,2.45
2023-03-29T10:05:11.808Z,2.40
2023-03-29T10:07:40.358Z,1.50
2023-03-29T10:10:07.881Z,2.20
2023-03-29T10:12:35.358Z,4.07
2023-03-29T10:15:02.834Z,3.17
2023-03-29T10:17:33.364Z,3.08
2023-03-29T10:20:03.692Z,5.20
2023-03-29T10:22:31.921Z,1.55
2023-03-29T10:24:59.208Z,2.80
2023-03-29T10:27:27.565Z,3.60
2023-03-29T10:29:54.805Z,2.53
2023-03-29T10:32:22.864Z,2.55
2023-03-29T10:34:50.477Z,1.50
2023-03-29T10:37:19.291Z,4.82
2023-03-29T10:39:46.581Z,4.85
2023-03-29T10:42:14.099Z,4.78
2023-03-29T10:44:41.378Z,4.20
2023-03-29T10:47:08.638Z,5.55
2023-03-29T10:49:35.962Z,3.90
2023-03-29T10:52:04.333Z,5.63
2023-03-29T10:54:31.563Z,3.60
2023-03-29T10:56:58.982Z,3.67
2023-03-29T10:59:27.555Z,6.65
2023-03-29T11:01:54.910Z,8.73
2023-03-29T11:04:23.211Z,7.07
2023-03-29T11:06:50.936Z,7.75
2023-03-29T11:09:18.824Z,8.38
2023-03-29T11:11:46.074Z,12.07
2023-03-29T11:14:14.040Z,4.88
2023-03-29T11:16:42.026Z,10.98
2023-03-29T11:19:09.404Z,7.95
2023-03-29T11:21:36.798Z,8.07
2023-03-29T11:24:04.130Z,11.75
2023-03-29T11:26:31.862Z,11.25
2023-03-29T11:28:59.492Z,9.02
2023-03-29T11:31:26.768Z,11.73
2023-03-29T11:33:54.200Z,7.35
2023-03-29T11:36:21.548Z,5.55
2023-03-29T11:38:49.006Z,6.90
2023-03-29T11:41:17.674Z,8.90
2023-03-29T11:43:44.910Z,5.68
2023-03-29T11:46:12.138Z,9.23
2023-03-29T11:48:39.320Z,10.30
2023-03-29T11:51:07.052Z,9.60
2023-03-29T11:53:34.238Z,8.27
2023-03-29T11:56:01.585Z,12.55
2023-03-29T11:58:31.121Z,6.20
2023-03-29T12:00:58.696Z,8.13
2023-03-29T12:03:28.403Z,8.25
2023-03-29T12:05:56.896Z,11.30
2023-03-29T12:08:24.343Z,14.45
2023-03-29T12:10:51.600Z,10.15
2023-03-29T12:13:18.919Z,10.18
2023-03-29T12:15:46.615Z,9.75
2023-03-29T12:18:15.054Z,8.73
2023-03-29T12:20:42.365Z,10.85
2023-03-29T12:23:12.649Z,10.43
2023-03-29T12:25:39.975Z,10.40
2023-03-29T12:28:07.735Z,13.70
2023-03-29T12:30:34.983Z,10.30
2023-03-29T12:33:02.232Z,8.80
2023-03-29T12:35:54.233Z,9.05
2023-03-29T12:38:41.914Z,13.85
2023-03-29T12:41:28.349Z,9.63
2023-03-29T12:44:14.180Z,13.23
2023-03-29T12:47:07.264Z,15.82
2023-03-29T12:49:34.590Z,9.93
2023-03-29T12:52:02.455Z,7.25
2023-03-29T12:54:29.766Z,8.93
2023-03-29T12:56:58.288Z,8.48
2023-03-29T12:59:26.142Z,10.13
2023-03-29T13:01:53.453Z,10.05
2023-03-29T13:04:20.884Z,10.10
2023-03-29T13:06:48.064Z,7.10
2023-03-29T13:09:15.543Z,7.90
2023-03-29T13:11:42.824Z,12.15
2023-03-29T13:14:10.643Z,6.68
2023-03-29T13:16:38.156Z,9.10
2023-03-29T13:19:06.964Z,7.32
2023-03-29T13:21:34.218Z,10.15
2023-03-29T13:24:01.594Z,5.55
2023-03-29T13:26:28.874Z,15.18
2023-03-29T13:28:57.954Z,9.98
2023-03-29T13:31:25.754Z,6.55
2023-03-29T13:33:53.073Z,7.53
2023-03-29T13:36:20.447Z,8.10
2023-03-29T13:38:48.872Z,11.90
2023-03-29T13:41:16.108Z,9.30
2023-03-29T13:43:43.312Z,13.30
2023-03-29T13:46:10.567Z,14.18
2023-03-29T13:48:37.889Z,12.75
2023-03-29T13:51:08.370Z,9.40
2023-03-29T13:53:36.298Z,6.90
2023-03-29T13:56:03.843Z,10.70
2023-03-29T13:58:31.445Z,12.40
2023-03-29T14:00:59.729Z,12.52
2023-03-29T14:03:30.003Z,10.30
2023-03-29T14:05:57.466Z,11.30
2023-03-29T14:08:27.434Z,9.23
2023-03-29T14:10:54.782Z,14.95
2023-03-29T14:13:22.345Z,11.68
2023-03-29T14:15:49.648Z,10.90
2023-03-29T14:18:16.990Z,6.93
2023-03-29T14:20:44.828Z,11.40
2023-03-29T14:23:13.333Z,11.50
2023-03-29T14:25:42.395Z,8.00
2023-03-29T14:28:09.570Z,10.00
2023-03-29T14:30:36.919Z,11.93
2023-03-29T14:33:05.305Z,14.80
2023-03-29T14:35:33.206Z,7.75
2023-03-29T14:38:00.839Z,7.18
2023-03-29T14:40:28.162Z,8.55
2023-03-29T14:42:55.645Z,11.20
2023-03-29T14:45:23.496Z,7.22
2023-03-29T14:47:50.880Z,13.32
2023-03-29T14:50:18.222Z,7.97
2023-03-29T14:52:47.255Z,11.02
2023-03-29T14:55:16.320Z,12.70
2023-03-29T14:57:43.811Z,8.82
2023-03-29T15:00:13.516Z,5.65
2023-03-29T15:02:41.099Z,9.07
2023-03-29T15:05:08.356Z,9.27
2023-03-29T15:07:36.574Z,8.82
2023-03-29T15:10:05.228Z,11.35
2023-03-29T15:12:32.532Z,9.88
2023-03-29T15:14:59.787Z,13.25
2023-03-29T15:17:36.014Z,13.88
2023-03-29T15:20:11.607Z,10.35
2023-03-29T15:22:39.129Z,8.25
2023-03-29T15:25:06.443Z,13.25
2023-03-29T15:27:33.804Z,9.02
2023-03-29T15:30:04.281Z,7.00
2023-03-29T15:32:31.718Z,17.38
2023-03-29T15:34:59.245Z,11.70
2023-03-29T15:37:26.605Z,10.52
2023-03-29T15:39:53.818Z,16.10
2023-03-29T15:42:21.143Z,5.28
2023-03-29T15:44:48.424Z,9.45
2023-03-29T15:47:15.672Z,21.05
2023-03-29T15:49:42.977Z,7.85
2023-03-29T15:52:10.218Z,13.52
2023-03-29T15:54:37.495Z,11.85
2023-03-29T15:57:04.854Z,11.68
2023-03-29T15:59:32.121Z,11.57
2023-03-29T16:02:00.216Z,7.15
2023-03-29T16:04:27.473Z,10.13
2023-03-29T16:06:54.724Z,16.70
2023-03-29T16:09:21.979Z,16.73
2023-03-29T16:11:49.213Z,14.05
2023-03-29T16:14:16.651Z,11.32
2023-03-29T16:16:43.896Z,14.63
2023-03-29T16:19:11.533Z,10.38
2023-03-29T16:21:38.822Z,8.63
2023-03-29T16:24:07.374Z,12.98
2023-03-29T16:26:34.681Z,7.97
2023-03-29T16:29:01.976Z,10.43
2023-03-29T16:31:29.386Z,16.40
2023-03-29T16:33:56.666Z,12.93
2023-03-29T16:36:24.127Z,7.93
2023-03-29T16:38:51.738Z,14.85
2023-03-29T16:41:19.071Z,9.13
2023-03-29T16:43:46.338Z,10.63
2023-03-29T16:46:13.874Z,5.97
2023-03-29T16:48:41.441Z,9.70
2023-03-29T16:51:08.792Z,12.43
2023-03-29T16:53:36.053Z,20.85
2023-03-29T16:56:03.516Z,9.88
2023-03-29T16:58:31.071Z,9.32
2023-03-29T17:00:58.557Z,9.55
2023-03-29T17:03:25.868Z,16.58
2023-03-29T17:05:53.317Z,13.82
2023-03-29T17:08:20.830Z,14.70
2023-03-29T17:10:48.232Z,8.73
2023-03-29T17:13:15.506Z,14.73
2023-03-29T17:15:44.322Z,14.15
2023-03-29T17:18:12.389Z,19.55
2023-03-29T17:20:40.618Z,24.00
2023-03-29T17:23:09.020Z,10.15
2023-03-29T17:25:36.390Z,17.92
2023-03-29T17:28:03.707Z,15.27
2023-03-29T17:30:31.625Z,12.23
2023-03-29T17:32:59.077Z,11.77
2023-03-29T17:35:26.606Z,20.55
2023-03-29T17:37:54.923Z,20.92
2023-03-29T17:40:22.576Z,17.77
2023-03-29T17:42:52.361Z,16.75
2023-03-29T17:45:19.644Z,14.15
2023-03-29T17:47:47.017Z,13.88
2023-03-29T17:50:14.352Z,18.13
2023-03-29T17:52:41.615Z,21.35
2023-03-29T17:55:11.275Z,19.73
2023-03-29T17:57:39.037Z,19.58
2023-03-29T18:00:06.403Z,9.43
2023-03-29T18:02:33.753Z,14.50
2023-03-29T18:05:02.000Z,19.65
2023-03-29T18:07:29.282Z,19.35
2023-03-29T18:09:56.877Z,22.98
2023-03-29T18:12:24.134Z,8.70
2023-03-29T18:14:51.714Z,17.33
2023-03-29T18:17:19.117Z,18.40
2023-03-29T18:19:46.513Z,17.80
2023-03-29T18:22:13.696Z,21.52
2023-03-29T18:24:41.029Z,25.33
2023-03-29T18:27:08.239Z,21.40
2023-03-29T18:29:35.857Z,11.07
2023-03-29T18:32:03.371Z,15.25
2023-03-29T18:34:30.924Z,20.00
2023-03-29T18:36:58.308Z,30.75
2023-03-29T18:39:25.870Z,16.73
2023-03-29T18:41:53.192Z,12.02
2023-03-29T18:44:21.994Z,18.55
2023-03-29T18:46:49.252Z,14.27
2023-03-29T18:49:16.504Z,12.93
2023-03-29T18:51:44.208Z,12.60
2023-03-29T18:54:11.666Z,21.00
2023-03-29T18:56:38.954Z,10.02
2023-03-29T18:59:06.983Z,12.60
2023-03-29T19:01:34.706Z,20.45
2023-03-29T19:04:02.259Z,9.20
2023-03-29T19:06:29.627Z,23.85
2023-03-29T19:08:59.774Z,8.10
2023-03-29T19:11:28.918Z,15.23
2023-03-29T19:13:56.704Z,12.85
2023-03-29T19:16:24.165Z,13.23
2023-03-29T19:18:51.790Z,14.93
2023-03-29T19:21:19.290Z,20.30
2023-03-29T19:23:49.348Z,9.98
2023-03-29T19:26:16.862Z,6.95
2023-03-29T19:28:44.084Z,21.63
2023-03-29T19:31:12.213Z,19.63
2023-03-29T19:33:40.925Z,9.15
2023-03-29T19:36:08.294Z,9.20
2023-03-29T19:38:36.388Z,15.00
2023-03-29T19:41:03.724Z,15.45
2023-03-29T19:43:31.934Z,11.93
2023-03-29T19:45:59.469Z,20.00
2023-03-29T19:48:26.864Z,14.05
2023-03-29T19:50:54.120Z,17.83
2023-03-29T19:53:23.251Z,12.10
2023-03-29T19:55:50.652Z,12.15
2023-03-29T19:58:18.199Z,18.45
2023-03-29T20:00:45.492Z,11.98
2023-03-29T20:03:14.075Z,11.13
2023-03-29T20:05:42.453Z,16.52
2023-03-29T20:08:09.772Z,18.60
2023-03-29T20:10:37.035Z,18.10
2023-03-29T20:13:06.276Z,23.85
2023-03-29T20:15:33.653Z,9.45
2023-03-29T20:18:01.060Z,12.82
2023-03-29T20:20:29.978Z,20.38
2023-03-29T20:23:04.687Z,17.85
2023-03-29T20:25:32.726Z,20.48
2023-03-29T20:28:00.795Z,21.50
2023-03-29T20:30:28.120Z,13.18
2023-03-29T20:32:55.802Z,11.90
2023-03-29T20:35:23.248Z,20.05
2023-03-29T20:37:50.682Z,10.38
2023-03-29T20:40:18.110Z,6.65
2023-03-29T20:42:46.434Z,7.80
2023-03-29T20:45:18.777Z,10.35
2023-03-29T20:47:50.534Z,5.95
2023-03-29T20:50:18.948Z,10.55
2023-03-29T20:52:46.766Z,10.85
2023-03-29T20:55:24.610Z,17.23
2023-03-29T20:57:54.076Z,11.27
2023-03-29T21:00:22.579Z,11.57
2023-03-29T21:02:50.046Z,13.25
2023-03-29T21:05:17.444Z,8.35
2023-03-29T21:07:45.521Z,10.27
2023-03-29T21:10:13.867Z,11.00
2023-03-29T21:12:41.174Z,10.00
2023-03-29T21:15:08.667Z,14.35
2023-03-29T21:17:36.370Z,20.60
2023-03-29T21:20:07.592Z,18.65
2023-03-29T21:22:35.165Z,12.02
2023-03-29T21:25:02.463Z,15.40
2023-03-29T21:27:29.716Z,9.23
2023-03-29T21:29:56.924Z,12.52
2023-03-29T21:32:24.274Z,23.90
2023-03-29T21:34:51.516Z,14.80
2023-03-29T21:37:19.013Z,19.33
2023-03-29T21:39:46.246Z,10.93
2023-03-29T21:42:13.516Z,10.30
2023-03-29T21:44:40.943Z,18.13
2023-03-29T21:47:08.499Z,17.52
2023-03-29T21:49:35.763Z,26.85
2023-03-29T21:52:04.038Z,13.35
2023-03-29T21:54:31.336Z,14.15
2023-03-29T21:56:58.589Z,15.98
2023-03-29T21:59:26.001Z,14.73
2023-03-29T22:01:54.408Z,16.02
2023-03-29T22:04:35.374Z,14.48
2023-03-29T22:07:04.162Z,16.27
2023-03-29T22:09:31.447Z,15.25
2023-03-29T22:11:59.937Z,14.35
2023-03-29T22:14:29.445Z,19.88
2023-03-29T22:16:57.468Z,20.52
2023-03-29T22:19:24.714Z,17.55
2023-03-29T22:21:54.400Z,15.75
2023-03-29T22:24:21.603Z,17.98
2023-03-29T22:26:49.913Z,18.08
2023-03-29T22:29:17.206Z,16.55
2023-03-29T22:31:44.447Z,19.63
2023-03-29T22:34:11.932Z,23.67
2023-03-29T22:36:39.176Z,23.30
2023-03-29T22:39:06.711Z,18.55
2023-03-29T22:41:34.046Z,21.17
2023-03-29T22:44:01.384Z,13.52
2023-03-29T22:46:28.666Z,24.55
2023-03-29T22:48:56.052Z,17.15
2023-03-29T22:51:23.259Z,14.85
2023-03-29T22:53:50.818Z,14.52
2023-03-29T22:56:18.208Z,23.13
2023-03-29T22:58:45.837Z,10.52
2023-03-29T23:01:13.216Z,13.88
2023-03-29T23:03:40.771Z,10.98
2023-03-29T23:06:07.928Z,13.70
2023-03-29T23:08:35.388Z,10.27
2023-03-29T23:11:02.885Z,19.77
2023-03-29T23:13:30.436Z,18.27
2023-03-29T23:15:59.222Z,20.58
2023-03-29T23:18:26.890Z,14.95
2023-03-29T23:20:54.813Z,16.70
2023-03-29T23:23:22.114Z,13.35
2023-03-29T23:25:49.296Z,20.33
2023-03-29T23:28:17.004Z,17.38
2023-03-29T23:30:44.275Z,17.80
2023-03-29T23:33:11.816Z,17.98
2023-03-29T23:35:39.123Z,15.20
2023-03-29T23:38:08.574Z,24.42
2023-03-29T23:40:35.875Z,14.80
2023-03-29T23:43:04.236Z,28.30
2023-03-29T23:45:31.812Z,26.40
2023-03-29T23:47:59.213Z,23.90
2023-03-29T23:50:28.802Z,21.33
2023-03-29T23:52:56.369Z,27.45
2023-03-29T23:55:23.703Z,20.15
2023-03-29T23:57:54.000Z,24.95
